createdAt,value
2019-01-10T00:00:51.879Z,1.60
2019-01-10T00:03:21.643Z,1.30
2019-01-10T00:05:51.453Z,1.62
2019-01-10T00:08:21.337Z,2.15
2019-01-10T00:10:51.478Z,1.60
2019-01-10T00:13:21.425Z,1.50
2019-01-10T00:15:51.369Z,1.50
2019-01-10T00:18:21.322Z,1.35
2019-01-10T00:20:51.333Z,1.65
2019-01-10T00:23:21.305Z,1.98
2019-01-10T00:25:51.286Z,2.27
2019-01-10T00:28:21.170Z,1.62
2019-01-10T00:30:50.955Z,2.00
2019-01-10T00:33:20.733Z,1.47
2019-01-10T00:35:50.660Z,1.70
2019-01-10T00:38:20.410Z,2.02
2019-01-10T00:40:50.266Z,2.12
2019-01-10T00:43:20.022Z,1.67
2019-01-10T00:45:49.878Z,2.50
2019-01-10T00:48:19.634Z,2.50
2019-01-10T00:50:49.525Z,1.80
2019-01-10T00:53:19.344Z,2.15
2019-01-10T00:55:49.138Z,2.58
2019-01-10T00:58:18.892Z,1.60
2019-01-10T01:00:48.744Z,2.00
2019-01-10T01:03:18.571Z,2.90
2019-01-10T01:05:48.509Z,1.77
2019-01-10T01:08:18.359Z,2.10
2019-01-10T01:10:48.270Z,2.65
2019-01-10T01:13:18.145Z,1.60
2019-01-10T01:15:48.080Z,2.60
2019-01-10T01:18:17.839Z,2.37
2019-01-10T01:20:47.713Z,2.52
2019-01-10T01:23:17.520Z,2.35
2019-01-10T01:25:47.312Z,2.27
2019-01-10T01:28:17.150Z,2.95
2019-01-10T01:30:46.938Z,2.67
2019-01-10T01:33:16.812Z,3.15
2019-01-10T01:35:46.680Z,2.60
2019-01-10T01:38:16.537Z,2.50
2019-01-10T01:40:46.447Z,2.45
2019-01-10T01:43:16.212Z,2.60
2019-01-10T01:45:46.060Z,3.10
2019-01-10T01:48:15.817Z,2.52
2019-01-10T01:50:45.630Z,2.22
2019-01-10T01:53:15.462Z,2.60
2019-01-10T01:55:45.338Z,3.08
2019-01-10T01:58:15.191Z,2.58
2019-01-10T02:00:45.011Z,3.30
2019-01-10T02:03:14.875Z,3.02
2019-01-10T02:05:44.702Z,2.98
2019-01-10T02:08:14.491Z,2.67
2019-01-10T02:10:44.259Z,2.45
2019-01-10T02:13:16.958Z,3.00
2019-01-10T02:15:45.731Z,3.00
2019-01-10T02:18:15.601Z,2.62
2019-01-10T02:20:45.423Z,2.00
2019-01-10T02:23:15.221Z,2.50
2019-01-10T02:25:45.079Z,2.22
2019-01-10T02:28:14.862Z,2.85
2019-01-10T02:30:44.620Z,2.85
2019-01-10T02:33:14.484Z,2.80
2019-01-10T02:35:44.246Z,3.00
2019-01-10T02:38:14.029Z,3.00
2019-01-10T02:40:43.857Z,3.30
2019-01-10T02:43:13.719Z,3.60
2019-01-10T02:45:43.553Z,2.58
2019-01-10T02:48:13.403Z,2.55
2019-01-10T02:50:43.229Z,3.30
2019-01-10T02:53:13.023Z,2.83
2019-01-10T02:55:42.782Z,3.05
2019-01-10T02:58:12.574Z,2.65
2019-01-10T03:00:42.401Z,3.33
2019-01-10T03:03:12.186Z,2.92
2019-01-10T03:05:41.941Z,3.87
2019-01-10T03:08:11.806Z,3.92
2019-01-10T03:10:41.548Z,2.90
2019-01-10T03:13:11.334Z,3.12
2019-01-10T03:15:41.090Z,4.10
2019-01-10T03:18:10.952Z,3.50
2019-01-10T03:20:40.871Z,3.77
2019-01-10T03:23:10.904Z,4.40
2019-01-10T03:25:40.887Z,3.85
2019-01-10T03:28:10.908Z,4.30
2019-01-10T03:30:41.324Z,3.60
2019-01-10T03:33:11.628Z,3.85
2019-01-10T03:35:41.646Z,4.03
2019-01-10T03:38:11.621Z,3.87
2019-01-10T03:40:41.658Z,3.67
2019-01-10T03:43:11.558Z,4.00
2019-01-10T03:45:41.416Z,3.90
2019-01-10T03:48:11.240Z,4.22
2019-01-10T03:50:41.096Z,3.98
2019-01-10T03:53:10.852Z,3.47
2019-01-10T03:55:40.740Z,3.17
2019-01-10T03:58:10.493Z,4.15
2019-01-10T04:00:40.386Z,4.20
2019-01-10T04:03:10.214Z,3.60
2019-01-10T04:05:39.995Z,3.87
2019-01-10T04:08:09.760Z,4.20
2019-01-10T04:10:39.547Z,4.03
2019-01-10T04:13:09.301Z,3.27
2019-01-10T04:15:39.163Z,4.92
2019-01-10T04:18:09.008Z,4.42
2019-01-10T04:20:38.795Z,4.33
2019-01-10T04:23:08.555Z,3.55
2019-01-10T04:25:38.417Z,3.90
2019-01-10T04:28:08.243Z,3.40
2019-01-10T04:30:38.108Z,4.42
2019-01-10T04:33:08.018Z,4.87
2019-01-10T04:35:37.862Z,3.98
2019-01-10T04:38:07.729Z,4.05
2019-01-10T04:40:37.543Z,4.60
2019-01-10T04:43:07.414Z,4.22
2019-01-10T04:45:37.306Z,4.20
2019-01-10T04:48:07.117Z,4.03
2019-01-10T04:50:36.914Z,3.50
2019-01-10T04:53:06.813Z,4.33
2019-01-10T04:55:36.635Z,4.95
2019-01-10T04:58:06.418Z,4.10
2019-01-10T05:00:36.179Z,4.35
2019-01-10T05:03:05.978Z,4.50
2019-01-10T05:05:35.808Z,4.10
2019-01-10T05:08:05.664Z,4.75
2019-01-10T05:10:35.425Z,4.95
2019-01-10T05:13:05.278Z,5.40
2019-01-10T05:15:35.110Z,4.65
2019-01-10T05:18:04.899Z,3.90
2019-01-10T05:20:34.740Z,4.22
2019-01-10T05:23:04.535Z,4.67
2019-01-10T05:25:34.290Z,4.85
2019-01-10T05:28:04.176Z,5.10
2019-01-10T05:30:34.009Z,5.33
2019-01-10T05:33:03.864Z,5.95
2019-01-10T05:35:33.773Z,4.75
2019-01-10T05:38:03.632Z,4.28
2019-01-10T05:40:33.517Z,5.15
2019-01-10T05:43:03.369Z,5.75
2019-01-10T05:45:33.209Z,5.83
2019-01-10T05:48:03.071Z,5.40
2019-01-10T05:50:32.901Z,5.28
2019-01-10T05:53:02.757Z,5.05
2019-01-10T05:55:32.623Z,5.80
2019-01-10T05:58:02.461Z,4.92
2019-01-10T06:00:32.323Z,5.20
2019-01-10T06:03:02.163Z,5.35
2019-01-10T06:05:32.010Z,5.92
2019-01-10T06:08:01.831Z,5.28
2019-01-10T06:10:31.744Z,5.08
2019-01-10T06:13:01.571Z,6.28
2019-01-10T06:15:31.425Z,5.95
2019-01-10T06:18:01.252Z,4.60
2019-01-10T06:20:31.148Z,5.55
2019-01-10T06:23:00.974Z,5.40
2019-01-10T06:25:30.859Z,5.10
2019-01-10T06:28:00.759Z,7.25
2019-01-10T06:30:30.607Z,4.95
2019-01-10T06:33:00.435Z,5.40
2019-01-10T06:35:30.312Z,5.97
2019-01-10T06:38:00.131Z,5.33
2019-01-10T06:40:29.990Z,5.12
2019-01-10T06:42:59.814Z,5.33
2019-01-10T06:45:29.679Z,6.28
2019-01-10T06:47:59.507Z,4.10
2019-01-10T06:50:29.375Z,5.87
2019-01-10T06:52:59.218Z,4.25
2019-01-10T06:55:29.077Z,5.33
2019-01-10T06:57:58.954Z,4.47
2019-01-10T07:00:28.813Z,4.60
2019-01-10T07:02:58.638Z,3.55
2019-01-10T07:05:28.448Z,4.47
2019-01-10T07:07:58.345Z,4.75
2019-01-10T07:10:29.445Z,4.30
2019-01-10T07:12:59.333Z,3.70
2019-01-10T07:15:29.317Z,3.95
2019-01-10T07:17:59.233Z,4.10
2019-01-10T07:20:28.984Z,3.70
2019-01-10T07:22:58.849Z,4.58
2019-01-10T07:25:28.607Z,4.28
2019-01-10T07:28:03.062Z,3.85
2019-01-10T07:30:36.313Z,3.25
2019-01-10T07:33:04.427Z,3.55
2019-01-10T07:35:34.251Z,3.80
2019-01-10T07:38:04.110Z,3.85
2019-01-10T07:40:38.393Z,3.40
2019-01-10T07:43:08.256Z,3.30
2019-01-10T07:45:38.157Z,3.35
2019-01-10T07:48:09.577Z,3.45
2019-01-10T07:50:39.408Z,4.33
2019-01-10T07:53:09.194Z,3.95
2019-01-10T07:55:38.945Z,3.90
2019-01-10T07:58:08.830Z,3.37
2019-01-10T08:00:38.699Z,3.15
2019-01-10T08:03:08.763Z,3.83
2019-01-10T08:05:38.895Z,3.70
2019-01-10T08:08:09.094Z,3.37
2019-01-10T08:10:39.010Z,3.87
2019-01-10T08:13:08.886Z,4.30
2019-01-10T08:15:38.804Z,3.55
2019-01-10T08:18:08.696Z,3.50
2019-01-10T08:20:38.451Z,3.22
2019-01-10T08:23:08.309Z,3.42
2019-01-10T08:25:38.143Z,3.40
2019-01-10T08:28:08.032Z,2.95
2019-01-10T08:30:37.809Z,2.87
2019-01-10T08:33:07.664Z,3.50
2019-01-10T08:35:37.499Z,3.45
2019-01-10T08:38:07.355Z,2.25
2019-01-10T08:40:37.194Z,3.72
2019-01-10T08:43:07.052Z,2.47
2019-01-10T08:45:36.815Z,3.58
2019-01-10T08:48:06.705Z,2.72
2019-01-10T08:50:36.538Z,3.15
2019-01-10T08:53:06.492Z,3.80
2019-01-10T08:55:36.244Z,3.70
2019-01-10T08:58:06.032Z,2.40
2019-01-10T09:00:35.799Z,2.47
2019-01-10T09:03:05.651Z,2.75
2019-01-10T09:05:35.404Z,3.08
2019-01-10T09:08:05.298Z,2.77
2019-01-10T09:10:35.161Z,2.37
2019-01-10T09:13:05.731Z,2.27
2019-01-10T09:15:35.528Z,2.10
2019-01-10T09:18:06.312Z,2.45
2019-01-10T09:20:36.069Z,2.50
2019-01-10T09:23:05.921Z,2.25
2019-01-10T09:25:35.745Z,2.70
2019-01-10T09:28:05.534Z,2.30
2019-01-10T09:30:35.387Z,3.55
2019-01-10T09:33:05.281Z,3.15
2019-01-10T09:35:35.106Z,3.22
2019-01-10T09:38:04.960Z,2.75
2019-01-10T09:40:34.718Z,3.10
2019-01-10T09:43:04.641Z,2.22
2019-01-10T09:45:42.812Z,3.10
2019-01-10T09:48:06.083Z,2.08
2019-01-10T09:50:35.879Z,2.70
2019-01-10T09:53:05.799Z,2.47
2019-01-10T09:55:35.587Z,2.17
2019-01-10T09:58:05.533Z,2.77
2019-01-10T10:00:35.379Z,2.02
2019-01-10T10:03:05.123Z,3.40
2019-01-10T10:05:34.979Z,2.25
2019-01-10T10:08:05.006Z,3.02
2019-01-10T10:10:34.811Z,2.25
2019-01-10T10:13:04.565Z,2.00
2019-01-10T10:15:34.347Z,1.75
2019-01-10T10:18:04.171Z,2.22
2019-01-10T10:20:33.956Z,2.10
2019-01-10T10:23:03.746Z,2.95
2019-01-10T10:25:33.495Z,3.02
2019-01-10T10:28:03.280Z,3.02
2019-01-10T10:30:33.129Z,2.45
2019-01-10T10:33:02.881Z,2.02
2019-01-10T10:35:32.640Z,3.10
2019-01-10T10:38:02.538Z,2.33
2019-01-10T10:40:32.290Z,2.60
2019-01-10T10:43:02.082Z,2.90
2019-01-10T10:45:31.935Z,2.62
2019-01-10T10:48:01.805Z,2.70
2019-01-10T10:50:31.815Z,3.83
2019-01-10T10:53:03.245Z,3.17
2019-01-10T10:55:33.110Z,4.00
2019-01-10T10:58:02.891Z,3.15
2019-01-10T11:00:32.818Z,3.15
2019-01-10T11:03:02.598Z,2.90
2019-01-10T11:05:32.732Z,3.10
2019-01-10T11:08:02.578Z,3.10
2019-01-10T11:10:32.402Z,3.00
2019-01-10T11:13:02.201Z,5.12
2019-01-10T11:15:32.221Z,3.22
2019-01-10T11:18:02.088Z,3.00
2019-01-10T11:20:31.829Z,3.87
2019-01-10T11:23:10.205Z,3.47
2019-01-10T11:25:33.224Z,3.87
2019-01-10T11:28:03.792Z,3.47
2019-01-10T11:30:33.535Z,3.62
2019-01-10T11:33:03.403Z,3.12
2019-01-10T11:35:33.149Z,3.60
2019-01-10T11:38:02.934Z,2.83
2019-01-10T11:40:32.862Z,4.22
2019-01-10T11:43:02.699Z,4.35
2019-01-10T11:45:32.587Z,2.62
2019-01-10T11:48:02.347Z,3.12
2019-01-10T11:50:32.128Z,3.40
2019-01-10T11:53:01.900Z,2.80
2019-01-10T11:55:31.684Z,2.92
2019-01-10T11:58:01.437Z,3.65
2019-01-10T12:00:31.493Z,4.10
2019-01-10T12:03:01.240Z,3.45
2019-01-10T12:05:31.051Z,3.25
2019-01-10T12:08:00.862Z,3.08
2019-01-10T12:10:30.635Z,3.02
2019-01-10T12:13:00.383Z,3.10
2019-01-10T12:15:30.163Z,2.27
2019-01-10T12:17:59.911Z,3.05
2019-01-10T12:20:29.695Z,3.20
2019-01-10T12:22:59.437Z,4.25
2019-01-10T12:25:29.286Z,2.98
2019-01-10T12:27:59.106Z,3.42
2019-01-10T12:30:28.923Z,2.90
2019-01-10T12:32:58.723Z,2.92
2019-01-10T12:35:28.583Z,2.60
2019-01-10T12:37:58.400Z,3.02
2019-01-10T12:40:28.182Z,3.45
2019-01-10T12:42:57.967Z,3.33
2019-01-10T12:45:27.784Z,2.80
2019-01-10T12:47:57.637Z,3.90
2019-01-10T12:50:29.853Z,3.40
2019-01-10T12:52:59.637Z,3.22
2019-01-10T12:55:29.381Z,3.25
2019-01-10T12:57:59.262Z,3.40
2019-01-10T13:00:29.018Z,3.22
2019-01-10T13:02:58.873Z,3.70
2019-01-10T13:05:28.616Z,4.25
2019-01-10T13:08:03.335Z,3.95
2019-01-10T13:10:29.873Z,2.47
2019-01-10T13:12:59.718Z,3.05
2019-01-10T13:15:29.576Z,3.45
2019-01-10T13:17:59.435Z,4.33
2019-01-10T13:20:29.181Z,3.40
2019-01-10T13:22:58.963Z,3.58
2019-01-10T13:25:29.190Z,3.90
2019-01-10T13:27:58.968Z,3.98
2019-01-10T13:30:28.721Z,3.50
2019-01-10T13:32:58.579Z,3.33
2019-01-10T13:35:28.405Z,3.27
2019-01-10T13:37:58.255Z,3.52
2019-01-10T13:40:29.164Z,2.72
2019-01-10T13:42:58.985Z,2.90
2019-01-10T13:45:28.806Z,2.50
2019-01-10T13:47:58.833Z,3.25
2019-01-10T13:50:29.079Z,3.62
2019-01-10T13:52:58.829Z,3.52
2019-01-10T13:55:28.794Z,2.77
2019-01-10T13:57:58.812Z,2.22
2019-01-10T14:00:35.388Z,2.90
2019-01-10T14:03:01.641Z,3.02
2019-01-10T14:05:31.425Z,3.52
2019-01-10T14:08:01.250Z,2.47
2019-01-10T14:10:31.040Z,3.05
2019-01-10T14:13:00.791Z,2.55
2019-01-10T14:15:31.913Z,2.58
2019-01-10T14:18:01.661Z,3.10
2019-01-10T14:20:31.527Z,2.65
2019-01-10T14:23:01.451Z,3.05
2019-01-10T14:25:31.215Z,3.52
2019-01-10T14:28:01.063Z,3.00
2019-01-10T14:30:34.419Z,2.70
2019-01-10T14:33:04.645Z,2.98
2019-01-10T14:35:34.494Z,3.00
2019-01-10T14:38:04.315Z,3.27
2019-01-10T14:40:34.169Z,3.25
2019-01-10T14:43:03.997Z,3.02
2019-01-10T14:45:35.923Z,2.55
2019-01-10T14:48:06.117Z,3.08
2019-01-10T14:50:36.280Z,3.90
2019-01-10T14:53:06.210Z,4.20
2019-01-10T14:55:36.060Z,4.45
2019-01-10T14:58:06.646Z,3.08
2019-01-10T15:00:36.399Z,3.20
2019-01-10T15:03:06.253Z,3.42
2019-01-10T15:05:36.009Z,3.17
2019-01-10T15:08:06.392Z,3.17
2019-01-10T15:10:36.147Z,3.27
2019-01-10T15:13:06.110Z,2.87
2019-01-10T15:15:35.863Z,2.70
2019-01-10T15:18:05.711Z,2.95
2019-01-10T15:20:35.583Z,2.83
2019-01-10T15:23:05.443Z,3.02
2019-01-10T15:25:35.205Z,3.45
2019-01-10T15:28:05.273Z,3.33
2019-01-10T15:30:35.041Z,3.05
2019-01-10T15:33:04.882Z,2.40
2019-01-10T15:35:34.635Z,2.90
2019-01-10T15:38:04.461Z,2.85
2019-01-10T15:40:34.388Z,2.98
2019-01-10T15:43:04.253Z,2.90
2019-01-10T15:45:34.096Z,2.67
2019-01-10T15:48:03.951Z,3.15
2019-01-10T15:50:33.786Z,3.83
2019-01-10T15:53:03.574Z,3.15
2019-01-10T15:55:33.397Z,3.00
2019-01-10T15:58:03.252Z,3.12
2019-01-10T16:00:32.999Z,2.85
2019-01-10T16:03:02.859Z,3.35
2019-01-10T16:05:32.634Z,3.17
2019-01-10T16:08:02.531Z,3.83
2019-01-10T16:10:32.318Z,3.52
2019-01-10T16:13:02.191Z,3.40
2019-01-10T16:15:32.017Z,4.05
2019-01-10T16:18:01.833Z,2.90
2019-01-10T16:20:31.616Z,3.35
2019-01-10T16:23:01.454Z,3.60
2019-01-10T16:25:31.252Z,3.08
2019-01-10T16:28:01.139Z,3.83
2019-01-10T16:30:31.401Z,4.33
2019-01-10T16:33:01.323Z,4.20
2019-01-10T16:35:31.193Z,4.12
2019-01-10T16:38:01.012Z,4.78
2019-01-10T16:40:30.827Z,3.35
2019-01-10T16:43:00.644Z,4.40
2019-01-10T16:45:31.152Z,4.08
2019-01-10T16:48:01.014Z,5.05
2019-01-10T16:50:30.874Z,4.03
2019-01-10T16:53:00.702Z,3.77
2019-01-10T16:55:30.505Z,3.72
2019-01-10T16:58:00.328Z,4.35
2019-01-10T17:00:32.002Z,5.70
2019-01-10T17:03:01.762Z,4.22
2019-01-10T17:05:31.723Z,5.10
2019-01-10T17:08:01.553Z,5.90
2019-01-10T17:10:31.609Z,4.25
2019-01-10T17:13:01.512Z,4.30
2019-01-10T17:15:31.438Z,3.60
2019-01-10T17:18:01.200Z,4.15
2019-01-10T17:20:31.763Z,4.47
2019-01-10T17:23:01.708Z,4.85
2019-01-10T17:25:31.485Z,3.87
2019-01-10T17:28:01.317Z,4.50
2019-01-10T17:30:31.484Z,4.42
2019-01-10T17:33:01.419Z,4.80
2019-01-10T17:35:32.275Z,5.40
2019-01-10T17:38:02.024Z,4.83
2019-01-10T17:40:32.020Z,4.85
2019-01-10T17:43:01.846Z,5.17
2019-01-10T17:45:33.414Z,9.65
2019-01-10T17:48:03.273Z,9.75
2019-01-10T17:50:33.040Z,7.40
2019-01-10T17:53:02.906Z,8.15
2019-01-10T17:55:32.753Z,11.43
2019-01-10T17:58:02.632Z,7.53
2019-01-10T18:00:32.460Z,6.85
2019-01-10T18:03:02.325Z,5.53
2019-01-10T18:05:32.148Z,4.92
2019-01-10T18:08:01.996Z,5.12
2019-01-10T18:10:31.803Z,8.40
2019-01-10T18:13:01.595Z,5.75
2019-01-10T18:15:31.422Z,6.80
2019-01-10T18:18:01.299Z,5.85
2019-01-10T18:20:37.149Z,4.83
2019-01-10T18:23:07.311Z,6.00
2019-01-10T18:25:37.142Z,4.62
2019-01-10T18:28:07.146Z,4.40
2019-01-10T18:30:43.163Z,4.60
2019-01-10T18:33:08.531Z,3.80
2019-01-10T18:35:38.504Z,6.75
2019-01-10T18:38:08.359Z,6.90
2019-01-10T18:40:38.219Z,7.00
2019-01-10T18:43:08.084Z,6.03
2019-01-10T18:45:37.990Z,6.67
2019-01-10T18:48:08.037Z,6.58
2019-01-10T18:50:37.894Z,6.60
2019-01-10T18:53:07.751Z,4.70
2019-01-10T18:55:37.666Z,4.67
2019-01-10T18:58:07.602Z,4.25
2019-01-10T19:00:37.602Z,3.77
2019-01-10T19:03:07.559Z,3.55
2019-01-10T19:05:37.515Z,4.05
2019-01-10T19:08:07.544Z,4.60
2019-01-10T19:10:37.499Z,3.67
2019-01-10T19:13:07.438Z,3.67
2019-01-10T19:15:37.357Z,4.05
2019-01-10T19:18:08.895Z,3.60
2019-01-10T19:20:38.932Z,2.92
2019-01-10T19:23:08.831Z,3.33
2019-01-10T19:25:38.809Z,3.50
2019-01-10T19:28:08.831Z,3.47
2019-01-10T19:30:38.883Z,3.60
2019-01-10T19:33:08.869Z,3.65
2019-01-10T19:35:38.962Z,3.83
2019-01-10T19:38:09.012Z,4.15
2019-01-10T19:40:38.875Z,3.27
2019-01-10T19:43:08.873Z,3.05
2019-01-10T19:45:38.737Z,4.40
2019-01-10T19:48:09.864Z,3.58
2019-01-10T19:50:39.785Z,4.37
2019-01-10T19:53:09.768Z,4.15
2019-01-10T19:55:39.609Z,3.85
2019-01-10T19:58:09.512Z,4.35
2019-01-10T20:00:39.942Z,4.83
2019-01-10T20:03:09.798Z,5.15
2019-01-10T20:05:39.718Z,4.10
2019-01-10T20:08:09.573Z,4.72
2019-01-10T20:10:39.432Z,5.72
2019-01-10T20:13:09.219Z,4.47
2019-01-10T20:15:39.125Z,4.90
2019-01-10T20:18:09.077Z,5.10
2019-01-10T20:20:39.571Z,5.12
2019-01-10T20:23:10.378Z,6.30
2019-01-10T20:25:40.328Z,4.05
2019-01-10T20:28:10.309Z,4.85
2019-01-10T20:30:40.213Z,4.60
2019-01-10T20:33:10.044Z,5.28
2019-01-10T20:35:40.082Z,4.78
2019-01-10T20:38:09.859Z,5.65
2019-01-10T20:40:39.971Z,5.17
2019-01-10T20:43:09.799Z,4.55
2019-01-10T20:45:39.656Z,4.80
2019-01-10T20:48:09.634Z,5.28
2019-01-10T20:50:39.641Z,3.90
2019-01-10T20:53:09.878Z,5.60
2019-01-10T20:55:39.751Z,4.97
2019-01-10T20:58:09.670Z,5.20
2019-01-10T21:00:39.598Z,5.15
2019-01-10T21:03:09.460Z,4.97
2019-01-10T21:05:39.301Z,5.17
2019-01-10T21:08:09.089Z,5.60
2019-01-10T21:10:38.983Z,5.35
2019-01-10T21:13:08.851Z,5.10
2019-01-10T21:15:38.739Z,5.58
2019-01-10T21:18:08.500Z,4.80
2019-01-10T21:20:38.503Z,4.55
2019-01-10T21:23:08.420Z,5.42
2019-01-10T21:25:38.256Z,4.47
2019-01-10T21:28:08.128Z,5.83
2019-01-10T21:30:38.066Z,6.97
2019-01-10T21:33:10.847Z,6.75
2019-01-10T21:35:46.228Z,6.70
2019-01-10T21:38:16.362Z,5.42
2019-01-10T21:40:46.290Z,3.95
2019-01-10T21:43:19.031Z,8.75
2019-01-10T21:45:48.881Z,5.47
2019-01-10T21:48:18.736Z,5.42
2019-01-10T21:50:48.486Z,7.80
2019-01-10T21:53:18.343Z,5.90
2019-01-10T21:55:48.150Z,5.75
2019-01-10T21:58:17.919Z,3.05
2019-01-10T22:00:47.686Z,3.95
2019-01-10T22:03:20.452Z,4.58
2019-01-10T22:05:50.568Z,2.85
2019-01-10T22:08:20.440Z,3.05
2019-01-10T22:10:50.265Z,3.58
2019-01-10T22:13:20.123Z,2.72
2019-01-10T22:15:50.011Z,3.35
2019-01-10T22:18:19.836Z,2.75
2019-01-10T22:20:49.692Z,2.95
2019-01-10T22:23:19.558Z,2.90
2019-01-10T22:25:49.312Z,3.80
2019-01-10T22:28:19.178Z,2.30
2019-01-10T22:30:48.981Z,2.95
2019-01-10T22:33:18.808Z,2.42
2019-01-10T22:35:48.594Z,2.25
2019-01-10T22:38:18.610Z,2.42
2019-01-10T22:40:48.473Z,2.85
2019-01-10T22:43:18.403Z,2.33
2019-01-10T22:45:48.368Z,2.33
2019-01-10T22:48:18.242Z,3.27
2019-01-10T22:50:48.211Z,3.35
2019-01-10T22:53:18.146Z,3.45
2019-01-10T22:55:48.099Z,2.50
2019-01-10T22:58:17.967Z,3.12
2019-01-10T23:00:57.146Z,3.17
2019-01-10T23:03:27.857Z,3.98
2019-01-10T23:05:57.672Z,2.47
2019-01-10T23:08:27.494Z,2.30
2019-01-10T23:10:57.338Z,4.60
2019-01-10T23:13:27.088Z,1.80
2019-01-10T23:15:56.963Z,2.12
2019-01-10T23:18:26.714Z,2.40
2019-01-10T23:20:58.364Z,2.60
2019-01-10T23:23:28.191Z,1.87
2019-01-10T23:25:58.040Z,1.95
2019-01-10T23:28:27.865Z,1.72
2019-01-10T23:31:00.887Z,2.25
2019-01-10T23:33:30.831Z,2.47
2019-01-10T23:36:03.252Z,2.05
2019-01-10T23:38:33.081Z,2.30
2019-01-10T23:41:03.036Z,1.75
2019-01-10T23:43:32.864Z,1.70
2019-01-10T23:46:02.740Z,2.10
2019-01-10T23:48:32.666Z,2.90
2019-01-10T23:51:03.005Z,2.12
2019-01-10T23:53:32.883Z,2.22
2019-01-10T23:56:02.739Z,2.35
2019-01-10T23:58:32.482Z,2.75
